Time;durP1;ratioP1;P1;durP2;ratioP2;P2;SDS_P1;SDS_P2;PMS_P1;PMS_P2;Temp;Humidity;BMP_temperature;BMP_pressure;BME280_temperature;BME280_humidity;BME280_pressure;Samples;Min_cycle;Max_cycle;Signal;HPM_P1;HPM_P2
2022/03/10 00:01:43;;;;;;;20.53;11.47;;;-2.30;99.90;;;;;;5012314;28;20199;-66
2022/03/10 00:04:10;;;;;;;18.83;11.50;;;-2.30;99.90;;;;;;5011773;28;20207;-65
2022/03/10 00:06:39;;;;;;;17.97;11.60;;;-2.40;99.90;;;;;;5011835;28;20217;-66
2022/03/10 00:09:06;;;;;;;19.87;11.57;;;-2.40;99.90;;;;;;5011628;28;20214;-66
2022/03/10 00:11:33;;;;;;;22.43;12.37;;;-2.40;99.90;;;;;;5011908;28;20243;-65
2022/03/10 00:14:00;;;;;;;19.73;12.10;;;-2.50;99.90;;;;;;5011622;28;20213;-65
2022/03/10 00:16:27;;;;;;;22.80;12.20;;;-2.50;99.90;;;;;;5011794;28;20216;-65
2022/03/10 00:18:55;;;;;;;19.20;11.13;;;-2.50;99.90;;;;;;5011581;28;20390;-65
2022/03/10 00:21:22;;;;;;;19.93;11.30;;;-2.50;99.90;;;;;;5011766;28;20207;-67
2022/03/10 00:23:50;;;;;;;20.60;11.83;;;-2.40;99.90;;;;;;5011909;28;20565;-65
2022/03/10 00:26:17;;;;;;;21.93;11.67;;;-2.50;99.90;;;;;;5015057;28;20206;-65
2022/03/10 00:28:44;;;;;;;19.77;11.23;;;-2.50;99.90;;;;;;5015664;28;20218;-65
2022/03/10 00:31:12;;;;;;;20.77;12.13;;;-2.50;99.90;;;;;;5015493;28;20206;-65
2022/03/10 00:33:39;;;;;;;19.37;11.60;;;-2.50;99.90;;;;;;5015549;28;20696;-65
2022/03/10 00:36:07;;;;;;;20.47;12.23;;;-2.60;99.90;;;;;;5015173;28;20203;-65
2022/03/10 00:38:34;;;;;;;19.80;12.03;;;-2.60;99.90;;;;;;5015567;28;20615;-66
2022/03/10 00:41:03;;;;;;;20.60;11.47;;;-2.60;99.90;;;;;;5015068;28;20225;-66
2022/03/10 00:43:30;;;;;;;18.77;11.40;;;-2.60;99.90;;;;;;5015451;28;20209;-65
2022/03/10 00:45:57;;;;;;;19.30;11.10;;;-2.60;99.90;;;;;;5014962;28;20206;-65
2022/03/10 00:48:24;;;;;;;16.30;9.93;;;-2.60;99.90;;;;;;5015290;28;20234;-65
2022/03/10 00:50:51;;;;;;;19.30;10.33;;;-2.70;99.90;;;;;;5014881;28;20221;-65
2022/03/10 00:53:18;;;;;;;16.67;9.80;;;-2.80;99.90;;;;;;5015201;28;20226;-65
2022/03/10 00:55:45;;;;;;;16.63;9.73;;;-2.80;99.90;;;;;;5015119;28;20569;-65
2022/03/10 00:58:14;;;;;;;17.87;10.50;;;-2.80;99.90;;;;;;5014900;28;20229;-65
2022/03/10 01:00:41;;;;;;;16.27;9.43;;;-2.80;99.90;;;;;;5015037;28;20691;-66
2022/03/10 01:03:09;;;;;;;16.83;9.50;;;-2.80;99.90;;;;;;5014836;28;20209;-66
2022/03/10 01:05:36;;;;;;;14.93;9.07;;;-2.70;99.90;;;;;;5014707;28;20207;-67
2022/03/10 01:08:04;;;;;;;17.30;10.13;;;-2.80;99.90;;;;;;5014989;28;20696;-65
2022/03/10 01:10:31;;;;;;;16.93;10.37;;;-2.80;99.90;;;;;;5014786;28;20202;-66
2022/03/10 01:12:59;;;;;;;15.83;9.93;;;-2.90;99.90;;;;;;5014344;28;20603;-66
2022/03/10 01:15:29;;;;;;;15.37;9.23;;;-2.90;99.90;;;;;;5014747;28;20564;-64
2022/03/10 01:17:57;;;;;;;14.97;8.90;;;-2.90;99.90;;;;;;5014397;28;20202;-64
2022/03/10 01:20:26;;;;;;;19.10;9.30;;;-3.00;99.90;;;;;;5014789;28;20657;-65
2022/03/10 01:22:53;;;;;;;13.03;8.77;;;-3.10;99.90;;;;;;5014224;28;20207;-65
2022/03/10 01:25:20;;;;;;;15.77;9.60;;;-3.20;99.90;;;;;;5014978;28;20202;-65
2022/03/10 01:27:48;;;;;;;16.30;9.47;;;-3.30;99.90;;;;;;5014969;28;20460;-65
2022/03/10 01:30:16;;;;;;;17.23;9.57;;;-3.30;99.90;;;;;;5014946;28;20217;-65
2022/03/10 01:32:45;;;;;;;17.10;10.23;;;-3.40;99.90;;;;;;5014176;28;20313;-66
2022/03/10 01:35:13;;;;;;;17.00;9.57;;;-3.40;99.90;;;;;;5014256;28;20207;-66
2022/03/10 01:37:40;;;;;;;17.83;9.90;;;-3.40;99.90;;;;;;5013005;28;20229;-66
2022/03/10 01:40:09;;;;;;;16.17;9.83;;;-3.40;99.90;;;;;;5014119;28;20244;-65
2022/03/10 01:42:37;;;;;;;15.47;8.87;;;-3.40;99.90;;;;;;5014180;28;20203;-65
2022/03/10 01:45:05;;;;;;;15.50;9.00;;;-3.40;99.90;;;;;;5014082;28;20218;-65
2022/03/10 01:47:32;;;;;;;13.40;8.83;;;-3.50;99.90;;;;;;5013965;28;20223;-65
2022/03/10 01:50:01;;;;;;;16.67;9.57;;;-3.50;99.90;;;;;;5013970;28;20207;-66
2022/03/10 01:52:28;;;;;;;16.70;9.33;;;-3.60;99.90;;;;;;5014173;28;20231;-65
2022/03/10 01:54:56;;;;;;;16.03;8.80;;;-3.60;99.90;;;;;;5013914;28;20297;-66
2022/03/10 01:57:24;;;;;;;16.10;9.33;;;-3.60;99.90;;;;;;5013744;28;20298;-65
2022/03/10 01:59:52;;;;;;;15.43;8.93;;;-3.70;99.90;;;;;;5013839;28;20206;-65
2022/03/10 02:02:19;;;;;;;14.47;8.47;;;-3.70;99.90;;;;;;5013731;28;20209;-65
2022/03/10 02:04:46;;;;;;;13.57;8.63;;;-3.80;99.90;;;;;;5013346;28;20238;-66
2022/03/10 02:12:41;;;;;;;17.27;8.87;;;-3.90;99.90;;;;;;5013320;28;20238;-67
2022/03/10 02:18:00;;;;;;;10.73;7.40;;;-4.00;99.90;;;;;;5013616;28;20190;-65
2022/03/10 02:20:28;;;;;;;12.80;7.87;;;-4.10;99.90;;;;;;5013147;28;20209;-65
2022/03/10 02:22:56;;;;;;;14.30;7.87;;;-4.20;99.90;;;;;;5013610;28;20203;-65
2022/03/10 02:25:25;;;;;;;13.90;7.37;;;-4.30;99.90;;;;;;5013141;28;20203;-65
2022/03/10 02:27:53;;;;;;;16.40;7.60;;;-4.40;99.90;;;;;;5013276;28;20207;-66
2022/03/10 02:30:21;;;;;;;14.10;7.07;;;-4.50;99.90;;;;;;5013483;28;20207;-65
2022/03/10 02:32:49;;;;;;;11.43;6.60;;;-4.60;99.90;;;;;;5012832;28;20226;-65
2022/03/10 02:35:16;;;;;;;11.23;6.00;;;-4.60;99.90;;;;;;5013289;28;20677;-65
2022/03/10 02:37:44;;;;;;;11.27;6.53;;;-4.70;99.90;;;;;;5012866;28;20209;-64
2022/03/10 02:40:13;;;;;;;13.77;7.10;;;-4.70;99.90;;;;;;5012974;28;20242;-65
2022/03/10 02:42:41;;;;;;;12.60;7.00;;;-4.80;99.90;;;;;;5012747;28;20214;-65
2022/03/10 02:45:09;;;;;;;12.80;7.13;;;-4.80;99.90;;;;;;5013182;28;20502;-66
2022/03/10 02:47:37;;;;;;;16.10;7.57;;;-4.80;99.90;;;;;;5012384;28;20229;-66
2022/03/10 02:50:07;;;;;;;15.73;8.20;;;-4.80;99.90;;;;;;5013044;28;20206;-66
2022/03/10 02:52:35;;;;;;;11.90;7.30;;;-4.80;99.90;;;;;;5012871;28;20230;-64
2022/03/10 02:55:04;;;;;;;11.20;6.63;;;-4.80;99.90;;;;;;5013151;28;20661;-65
2022/03/10 02:57:33;;;;;;;11.83;7.20;;;-4.90;99.90;;;;;;5012832;28;20764;-65
2022/03/10 03:00:00;;;;;;;12.33;7.07;;;-4.90;99.90;;;;;;5012658;28;20209;-65
2022/03/10 03:02:28;;;;;;;14.67;8.10;;;-5.00;99.90;;;;;;5012433;28;20203;-65
2022/03/10 03:04:55;;;;;;;10.83;7.10;;;-5.00;99.90;;;;;;5012813;28;20206;-66
2022/03/10 03:07:23;;;;;;;13.07;7.33;;;-5.00;99.90;;;;;;5012807;28;20665;-65
2022/03/10 03:09:50;;;;;;;12.97;7.37;;;-5.00;99.90;;;;;;5012503;28;20207;-66
2022/03/10 03:12:17;;;;;;;13.47;7.73;;;-5.00;99.90;;;;;;5012187;28;20245;-64
2022/03/10 03:14:46;;;;;;;14.10;7.83;;;-5.10;99.90;;;;;;5012577;28;20568;-65
2022/03/10 03:17:13;;;;;;;13.30;7.80;;;-5.10;99.90;;;;;;5012658;28;20239;-65
2022/03/10 03:19:40;;;;;;;13.87;8.13;;;-5.10;99.90;;;;;;5012511;28;20721;-66
2022/03/10 03:22:07;;;;;;;17.23;8.33;;;-5.10;99.90;;;;;;5012328;28;20214;-66
2022/03/10 03:24:35;;;;;;;13.97;8.83;;;-5.10;99.90;;;;;;5012127;28;20203;-65
2022/03/10 03:27:02;;;;;;;13.13;8.10;;;-5.20;99.90;;;;;;5012541;28;20557;-65
2022/03/10 03:29:29;;;;;;;13.20;7.93;;;-5.30;99.90;;;;;;5012201;28;20221;-65
2022/03/10 03:31:58;;;;;;;13.10;8.17;;;-5.30;99.90;;;;;;5012256;28;20209;-65
2022/03/10 03:34:25;;;;;;;14.77;8.47;;;-5.40;99.90;;;;;;5012430;28;20278;-64
2022/03/10 03:36:52;;;;;;;12.07;7.67;;;-5.40;99.90;;;;;;5012225;28;20221;-65
2022/03/10 03:39:19;;;;;;;13.70;7.93;;;-5.50;99.90;;;;;;5011918;28;20214;-65
2022/03/10 03:41:46;;;;;;;13.33;7.60;;;-5.50;99.90;;;;;;5012108;28;20289;-66
2022/03/10 03:44:14;;;;;;;12.80;7.60;;;-5.50;99.90;;;;;;5012098;28;20207;-64
2022/03/10 03:46:42;;;;;;;12.03;7.37;;;-5.60;99.90;;;;;;5011953;28;20245;-65
2022/03/10 03:49:11;;;;;;;12.90;7.53;;;-5.50;99.90;;;;;;5012026;28;20210;-64
2022/03/10 03:51:38;;;;;;;14.93;8.00;;;-5.60;99.90;;;;;;5011870;28;20217;-65
2022/03/10 03:54:07;;;;;;;12.83;7.33;;;-5.60;99.90;;;;;;5011897;28;20223;-65
2022/03/10 03:56:35;;;;;;;12.93;7.77;;;-5.60;99.90;;;;;;5012264;28;20219;-65
2022/03/10 03:59:02;;;;;;;13.97;7.50;;;-5.50;99.90;;;;;;5012288;28;20713;-65
2022/03/10 04:01:29;;;;;;;13.73;8.13;;;-5.50;99.90;;;;;;5016202;28;20313;-66
2022/03/10 04:03:56;;;;;;;12.97;7.37;;;-5.50;99.90;;;;;;5016275;28;20199;-64
2022/03/10 04:06:26;;;;;;;12.23;7.27;;;-5.60;99.90;;;;;;5015760;28;20209;-65
2022/03/10 04:08:53;;;;;;;12.77;7.37;;;-5.60;99.90;;;;;;5016447;28;20203;-65
2022/03/10 04:11:20;;;;;;;13.10;7.40;;;-5.60;99.90;;;;;;5015740;28;20243;-66
2022/03/10 04:13:47;;;;;;;15.37;8.33;;;-5.60;99.90;;;;;;5016023;28;20700;-65
2022/03/10 04:16:14;;;;;;;14.50;8.07;;;-5.60;99.90;;;;;;5015454;28;20203;-65
2022/03/10 04:18:42;;;;;;;15.53;8.80;;;-5.60;99.90;;;;;;5015891;28;20207;-65
2022/03/10 04:21:09;;;;;;;18.07;9.63;;;-5.60;99.90;;;;;;5015452;28;20207;-65
2022/03/10 04:23:37;;;;;;;15.77;8.87;;;-5.60;99.90;;;;;;5016016;28;20297;-65
2022/03/10 04:26:04;;;;;;;15.27;8.27;;;-5.60;99.90;;;;;;5015502;28;20465;-65
2022/03/10 04:28:31;;;;;;;14.53;8.63;;;-5.70;99.90;;;;;;5015628;28;20653;-66
2022/03/10 04:30:59;;;;;;;15.63;8.50;;;-5.70;99.90;;;;;;5015389;28;20298;-65
2022/03/10 04:33:26;;;;;;;15.03;7.80;;;-5.70;99.90;;;;;;5015390;28;20583;-66
2022/03/10 04:35:55;;;;;;;11.83;7.60;;;-5.70;99.90;;;;;;5015404;28;20213;-65
2022/03/10 04:38:22;;;;;;;14.47;8.83;;;-5.80;99.90;;;;;;5015361;28;20680;-65
2022/03/10 04:40:51;;;;;;;15.63;8.23;;;-5.80;99.90;;;;;;5015056;28;20214;-66
2022/03/10 04:43:18;;;;;;;17.30;8.87;;;-5.80;99.90;;;;;;5015369;28;20285;-65
2022/03/10 04:45:45;;;;;;;12.03;7.40;;;-5.80;99.90;;;;;;5015093;28;20206;-67
2022/03/10 04:48:12;;;;;;;15.57;8.80;;;-5.80;99.90;;;;;;5015083;28;20230;-65
2022/03/10 04:50:40;;;;;;;13.70;8.30;;;-5.80;99.90;;;;;;5014925;28;20206;-66
2022/03/10 04:53:07;;;;;;;16.43;8.30;;;-5.80;99.90;;;;;;5015028;28;20229;-66
2022/03/10 04:55:34;;;;;;;14.30;7.67;;;-5.80;99.90;;;;;;5015223;28;20211;-66
2022/03/10 04:58:04;;;;;;;12.07;7.67;;;-5.90;99.90;;;;;;5014980;28;20214;-66
2022/03/10 05:00:31;;;;;;;14.30;8.27;;;-5.90;99.90;;;;;;5014748;28;20253;-65
2022/03/10 05:02:58;;;;;;;15.00;8.40;;;-5.80;99.90;;;;;;5015055;28;20206;-66
2022/03/10 05:05:26;;;;;;;14.17;7.80;;;-5.80;99.90;;;;;;5014676;28;20210;-64
2022/03/10 05:07:53;;;;;;;11.40;7.10;;;-5.80;99.90;;;;;;5014979;28;20213;-65
2022/03/10 05:10:20;;;;;;;12.03;7.40;;;-5.70;99.90;;;;;;5014483;28;20225;-64
2022/03/10 05:12:49;;;;;;;12.20;7.40;;;-5.70;99.90;;;;;;5014407;28;20248;-65
2022/03/10 05:15:22;;;;;;;10.80;6.77;;;-5.70;99.90;;;;;;5014736;28;20233;-66
2022/03/10 05:17:50;;;;;;;11.83;7.30;;;-5.70;99.90;;;;;;5014485;28;20281;-65
2022/03/10 05:20:18;;;;;;;15.37;7.87;;;-5.70;99.90;;;;;;5014163;28;20210;-66
2022/03/10 05:22:47;;;;;;;14.67;8.10;;;-5.70;99.90;;;;;;5014653;28;20203;-66
2022/03/10 05:25:15;;;;;;;13.67;8.10;;;-5.60;99.90;;;;;;5014489;28;20203;-67
2022/03/10 05:27:42;;;;;;;15.73;7.40;;;-5.60;99.90;;;;;;5014705;28;20685;-67
2022/03/10 05:30:11;;;;;;;13.40;8.00;;;-5.60;99.90;;;;;;5014221;28;20583;-66
2022/03/10 05:32:40;;;;;;;12.20;7.17;;;-5.60;99.90;;;;;;5014381;28;20298;-65
2022/03/10 05:35:09;;;;;;;11.17;7.23;;;-5.60;99.90;;;;;;5014318;28;20715;-65
2022/03/10 05:37:38;;;;;;;12.17;7.27;;;-5.60;99.90;;;;;;5014136;28;20660;-67
2022/03/10 05:40:07;;;;;;;12.67;7.10;;;-5.50;99.90;;;;;;5014342;28;20206;-65
2022/03/10 05:42:34;;;;;;;12.67;7.00;;;-5.50;99.90;;;;;;5014243;28;20211;-66
2022/03/10 05:45:01;;;;;;;13.30;7.37;;;-5.50;99.90;;;;;;5013941;28;20313;-65
2022/03/10 05:47:28;;;;;;;15.07;6.73;;;-5.50;99.90;;;;;;5013933;28;20222;-65
2022/03/10 05:49:57;;;;;;;14.57;7.60;;;-5.40;99.90;;;;;;5013705;28;20206;-66
2022/03/10 05:52:24;;;;;;;12.67;6.70;;;-5.30;99.90;;;;;;5014038;28;20213;-65
2022/03/10 05:54:51;;;;;;;12.87;6.93;;;-5.30;99.90;;;;;;5014179;28;20234;-68
2022/03/10 05:57:18;;;;;;;11.63;6.60;;;-5.20;99.90;;;;;;5013806;28;20207;-68
2022/03/10 05:59:46;;;;;;;12.57;7.00;;;-5.20;99.90;;;;;;5014047;28;20669;-67
2022/03/10 06:02:13;;;;;;;12.17;6.80;;;-5.20;99.90;;;;;;5013288;28;20215;-66
2022/03/10 06:04:40;;;;;;;10.87;6.63;;;-5.20;99.90;;;;;;5013727;28;20202;-67
2022/03/10 06:07:09;;;;;;;10.80;6.30;;;-5.20;99.90;;;;;;5013704;28;20207;-66
2022/03/10 06:09:36;;;;;;;10.87;6.43;;;-5.10;99.90;;;;;;5013763;28;20217;-67
2022/03/10 06:12:03;;;;;;;11.57;6.83;;;-5.10;99.90;;;;;;5013363;28;20365;-67
2022/03/10 06:14:31;;;;;;;13.10;6.80;;;-5.00;99.90;;;;;;5013569;28;20613;-67
2022/03/10 06:16:58;;;;;;;11.43;6.50;;;-4.90;99.90;;;;;;5013427;28;20566;-67
2022/03/10 06:19:26;;;;;;;13.13;6.83;;;-4.90;99.90;;;;;;5013545;28;20213;-65
2022/03/10 06:21:53;;;;;;;11.47;6.83;;;-4.90;99.90;;;;;;5012988;28;20206;-66
2022/03/10 06:24:21;;;;;;;13.23;6.90;;;-4.80;99.90;;;;;;5013157;28;20523;-66
2022/03/10 06:26:49;;;;;;;13.37;6.37;;;-4.90;99.90;;;;;;5013629;28;20577;-66
2022/03/10 06:29:16;;;;;;;10.97;6.17;;;-4.80;99.90;;;;;;5013154;28;20205;-66
2022/03/10 06:31:43;;;;;;;13.37;6.73;;;-4.80;99.90;;;;;;5013119;28;20213;-67
2022/03/10 06:34:10;;;;;;;11.27;6.53;;;-4.70;99.90;;;;;;5013039;28;20580;-66
2022/03/10 06:36:37;;;;;;;10.50;6.37;;;-4.70;99.90;;;;;;5013119;28;20206;-67
2022/03/10 06:39:06;;;;;;;13.40;6.70;;;-4.70;99.90;;;;;;5013030;28;20199;-67
2022/03/10 06:41:34;;;;;;;10.73;6.43;;;-4.70;99.90;;;;;;5013247;28;20210;-66
2022/03/10 06:44:01;;;;;;;12.73;6.63;;;-4.60;99.90;;;;;;5012882;28;20214;-67
2022/03/10 06:46:29;;;;;;;10.57;6.10;;;-4.60;99.90;;;;;;5013156;28;20226;-66
2022/03/10 06:48:56;;;;;;;13.23;6.50;;;-4.60;99.90;;;;;;5012571;28;20253;-67
2022/03/10 06:51:23;;;;;;;11.87;6.77;;;-4.50;99.90;;;;;;5012810;28;20215;-67
2022/03/10 06:53:50;;;;;;;10.20;6.60;;;-4.50;99.90;;;;;;5012955;28;20592;-65
2022/03/10 06:56:18;;;;;;;11.93;6.50;;;-4.40;99.90;;;;;;5012557;28;20213;-65
2022/03/10 06:58:46;;;;;;;13.03;6.10;;;-4.50;99.90;;;;;;5012970;28;20680;-65
2022/03/10 07:01:13;;;;;;;12.57;6.83;;;-4.40;99.90;;;;;;5012526;28;20209;-66
2022/03/10 07:03:40;;;;;;;11.50;6.80;;;-4.40;99.90;;;;;;5012967;28;20679;-66
2022/03/10 07:06:08;;;;;;;9.57;6.40;;;-4.40;99.90;;;;;;5012592;28;20209;-66
2022/03/10 07:08:36;;;;;;;9.37;5.70;;;-4.30;99.90;;;;;;5012764;28;20211;-66
2022/03/10 07:11:03;;;;;;;10.33;5.73;;;-4.20;99.90;;;;;;5012181;28;20213;-67
2022/03/10 07:13:30;;;;;;;9.57;5.60;;;-4.20;99.90;;;;;;5012708;28;20571;-66
2022/03/10 07:15:58;;;;;;;11.30;6.07;;;-4.30;99.90;;;;;;5012579;28;20226;-66
2022/03/10 07:18:26;;;;;;;9.07;5.47;;;-4.30;99.90;;;;;;5012288;28;20206;-65
2022/03/10 07:20:53;;;;;;;10.77;6.37;;;-4.30;99.90;;;;;;5012400;28;20677;-66
2022/03/10 07:23:20;;;;;;;9.57;5.10;;;-4.30;99.90;;;;;;5012603;28;20207;-66
2022/03/10 07:25:47;;;;;;;10.77;5.53;;;-4.20;99.90;;;;;;5012327;28;20565;-65
2022/03/10 07:28:14;;;;;;;7.97;5.17;;;-4.20;99.90;;;;;;5012168;28;20203;-68
2022/03/10 07:30:42;;;;;;;8.60;4.90;;;-4.10;99.90;;;;;;5012217;28;20206;-67
2022/03/10 07:33:10;;;;;;;9.10;4.70;;;-4.10;99.90;;;;;;5012197;28;20203;-65
2022/03/10 07:35:37;;;;;;;9.10;4.90;;;-4.10;99.90;;;;;;5011224;28;20225;-68
2022/03/10 07:38:04;;;;;;;9.47;5.43;;;-4.10;99.90;;;;;;5011822;28;20210;-67
2022/03/10 07:40:32;;;;;;;8.53;5.07;;;-4.00;99.90;;;;;;5011987;28;20206;-65
2022/03/10 07:43:00;;;;;;;12.97;5.60;;;-4.00;99.90;;;;;;5011898;28;20562;-66
2022/03/10 07:45:27;;;;;;;8.27;4.77;;;-4.00;99.90;;;;;;5012484;28;20210;-68
2022/03/10 07:47:54;;;;;;;7.67;5.13;;;-4.00;99.90;;;;;;5012362;28;20214;-68
2022/03/10 07:50:23;;;;;;;9.90;5.13;;;-3.90;99.90;;;;;;5012358;28;20700;-69
2022/03/10 07:52:50;;;;;;;8.73;4.70;;;-3.90;99.90;;;;;;5012043;28;20302;-66
2022/03/10 07:55:18;;;;;;;10.97;5.23;;;-3.80;99.90;;;;;;5011817;28;20226;-67
2022/03/10 07:57:45;;;;;;;10.67;4.93;;;-3.80;99.90;;;;;;5011805;28;20211;-66
2022/03/10 08:00:13;;;;;;;8.63;5.00;;;-3.80;99.90;;;;;;5011890;28;20218;-67
2022/03/10 08:02:40;;;;;;;9.40;4.90;;;-3.70;99.90;;;;;;5011783;28;20208;-65
2022/03/10 08:05:09;;;;;;;9.93;5.00;;;-3.70;99.90;;;;;;5011826;28;20209;-67
2022/03/10 08:07:37;;;;;;;8.03;5.00;;;-3.70;99.90;;;;;;5012221;28;20274;-67
2022/03/10 08:10:06;;;;;;;10.13;5.10;;;-3.70;99.90;;;;;;5011605;28;20210;-66
2022/03/10 08:12:34;;;;;;;7.07;4.20;;;-3.70;99.90;;;;;;5011870;28;20242;-68
2022/03/10 08:15:03;;;;;;;10.17;5.00;;;-3.70;99.90;;;;;;5011626;28;20450;-67
2022/03/10 08:17:30;;;;;;;7.23;4.47;;;-3.80;99.90;;;;;;5011992;28;20673;-65
2022/03/10 08:19:57;;;;;;;9.83;4.80;;;-3.80;99.90;;;;;;5011572;28;20203;-66
2022/03/10 08:22:25;;;;;;;7.53;4.67;;;-3.80;99.90;;;;;;5011735;28;20249;-65
2022/03/10 08:24:54;;;;;;;8.43;4.83;;;-3.80;99.90;;;;;;5011330;28;20222;-65
2022/03/10 08:27:21;;;;;;;8.30;4.80;;;-3.80;99.90;;;;;;5011560;28;20203;-66
2022/03/10 08:29:48;;;;;;;9.23;4.90;;;-3.70;99.90;;;;;;5011346;28;20240;-66
2022/03/10 08:32:16;;;;;;;8.10;4.60;;;-3.60;99.90;;;;;;5011783;28;20207;-67
2022/03/10 08:34:43;;;;;;;9.57;4.60;;;-3.70;99.90;;;;;;5011604;28;20227;-68
2022/03/10 08:37:10;;;;;;;7.43;4.63;;;-3.70;99.90;;;;;;5011652;28;20226;-66
2022/03/10 08:39:37;;;;;;;6.90;4.80;;;-3.70;99.90;;;;;;5011591;28;20554;-66
2022/03/10 08:42:07;;;;;;;8.43;5.17;;;-3.70;99.90;;;;;;5011715;28;20217;-65
2022/03/10 08:44:34;;;;;;;9.93;4.80;;;-3.60;99.90;;;;;;5011304;28;20211;-67
2022/03/10 08:47:01;;;;;;;8.83;4.70;;;-3.60;99.90;;;;;;5013975;28;20222;-66
2022/03/10 08:49:28;;;;;;;9.70;4.87;;;-3.60;99.90;;;;;;5015333;28;20214;-68
2022/03/10 08:51:55;;;;;;;8.20;4.53;;;-3.60;99.90;;;;;;5015100;28;20580;-67
2022/03/10 08:54:23;;;;;;;7.90;4.73;;;-3.60;99.90;;;;;;5014815;28;20233;-68
2022/03/10 08:56:51;;;;;;;8.13;4.60;;;-3.50;99.90;;;;;;5014980;28;20206;-68
2022/03/10 08:59:20;;;;;;;10.47;4.47;;;-3.50;99.90;;;;;;5015102;28;20665;-66
2022/03/10 09:01:47;;;;;;;8.53;4.80;;;-3.40;99.90;;;;;;5014517;28;20219;-70
2022/03/10 09:04:15;;;;;;;7.67;4.07;;;-3.40;99.90;;;;;;5015070;28;20206;-68
2022/03/10 09:06:43;;;;;;;8.93;4.30;;;-3.40;99.90;;;;;;5014867;28;20292;-67
2022/03/10 09:09:10;;;;;;;8.80;5.10;;;-3.40;99.90;;;;;;5015078;28;20661;-67
2022/03/10 09:11:38;;;;;;;9.23;4.80;;;-3.30;99.90;;;;;;5014336;28;20242;-68
2022/03/10 09:14:05;;;;;;;9.43;4.73;;;-3.30;99.90;;;;;;5014533;28;20253;-67
2022/03/10 09:16:33;;;;;;;8.43;4.60;;;-3.40;99.90;;;;;;5014695;28;20207;-66
2022/03/10 09:19:01;;;;;;;8.10;4.17;;;-3.40;99.90;;;;;;5014571;28;20206;-67
2022/03/10 09:21:28;;;;;;;6.43;4.37;;;-3.40;99.90;;;;;;5014755;28;20673;-66
2022/03/10 09:23:55;;;;;;;8.20;4.70;;;-3.40;99.90;;;;;;5014535;28;20202;-71
2022/03/10 09:26:22;;;;;;;8.33;5.03;;;-3.30;99.90;;;;;;5014535;28;20207;-66
2022/03/10 09:28:50;;;;;;;9.40;4.30;;;-3.30;99.90;;;;;;5014187;28;20202;-68
2022/03/10 09:31:18;;;;;;;9.83;4.40;;;-3.30;99.90;;;;;;5014260;28;20213;-67
2022/03/10 09:33:47;;;;;;;9.20;4.80;;;-3.30;99.90;;;;;;5014117;28;20207;-65
2022/03/10 09:36:15;;;;;;;9.40;4.70;;;-3.30;99.90;;;;;;5013887;28;20233;-66
2022/03/10 09:38:42;;;;;;;9.00;4.83;;;-3.20;99.90;;;;;;5014068;28;20550;-65
2022/03/10 09:41:09;;;;;;;9.10;4.60;;;-3.20;99.90;;;;;;5014352;28;20687;-67
2022/03/10 09:43:39;;;;;;;6.83;4.03;;;-3.20;99.90;;;;;;5013919;28;20206;-66
2022/03/10 09:46:08;;;;;;;10.83;4.43;;;-3.20;99.20;;;;;;5014037;28;20225;-65
2022/03/10 09:48:37;;;;;;;7.10;4.40;;;-3.10;99.60;;;;;;5014135;28;20206;-67
2022/03/10 09:51:06;;;;;;;7.47;4.60;;;-3.00;99.80;;;;;;5014111;28;20564;-66
2022/03/10 09:53:34;;;;;;;11.27;5.10;;;-2.90;99.90;;;;;;5014130;28;20224;-65
2022/03/10 09:56:02;;;;;;;8.40;4.40;;;-2.80;99.90;;;;;;5013931;28;20689;-66
2022/03/10 09:58:30;;;;;;;9.17;4.97;;;-2.70;99.90;;;;;;5012902;28;20615;-66
2022/03/10 10:01:00;;;;;;;9.20;3.97;;;-2.60;99.90;;;;;;5013830;28;20565;-66
2022/03/10 10:03:27;;;;;;;5.13;3.63;;;-2.50;99.30;;;;;;5013766;28;20544;-67
2022/03/10 10:05:58;;;;;;;9.83;4.20;;;-2.50;98.60;;;;;;5013826;28;20206;-66
2022/03/10 10:08:27;;;;;;;9.20;4.83;;;-2.40;98.30;;;;;;5013327;28;20191;-66
2022/03/10 10:10:57;;;;;;;9.67;4.07;;;-2.40;99.40;;;;;;5013363;28;20202;-66
2022/03/10 10:13:28;;;;;;;7.67;3.90;;;-2.40;97.60;;;;;;5013026;28;20242;-66
2022/03/10 10:15:58;;;;;;;7.87;4.10;;;-2.50;96.10;;;;;;5013169;28;20230;-67
2022/03/10 10:18:25;;;;;;;12.57;4.70;;;-2.50;98.40;;;;;;5013324;28;20203;-66
2022/03/10 10:20:54;;;;;;;9.10;4.40;;;-2.40;98.60;;;;;;5013614;28;20600;-65
2022/03/10 10:23:27;;;;;;;13.60;5.00;;;-2.30;98.30;;;;;;5013290;28;20294;-65
2022/03/10 10:25:57;;;;;;;7.07;4.30;;;-2.30;98.40;;;;;;5013469;28;20191;-66
2022/03/10 10:28:31;;;;;;;9.40;4.73;;;-2.20;98.70;;;;;;5013148;28;20218;-66
2022/03/10 10:31:02;;;;;;;12.30;4.20;;;-2.20;97.60;;;;;;5013169;28;20226;-65
2022/03/10 10:33:31;;;;;;;6.40;3.67;;;-2.10;95.60;;;;;;5012904;28;20207;-65
2022/03/10 10:36:16;;;;;;;7.20;3.77;;;-2.20;94.20;;;;;;5013078;28;20630;-67
2022/03/10 10:38:46;;;;;;;10.93;3.77;;;-2.20;95.00;;;;;;5012734;28;20210;-65
2022/03/10 10:41:26;;;;;;;7.37;4.17;;;-2.30;94.90;;;;;;5012966;28;20198;-65
2022/03/10 10:43:56;;;;;;;6.80;3.73;;;-2.30;95.40;;;;;;5013278;28;20197;-66
2022/03/10 10:46:25;;;;;;;6.53;3.93;;;-2.30;94.50;;;;;;5012785;28;20223;-65
2022/03/10 10:48:52;;;;;;;5.53;3.50;;;-2.40;93.80;;;;;;5013214;28;20786;-65
2022/03/10 10:51:38;;;;;;;5.83;3.67;;;-2.30;93.00;;;;;;5012961;28;20582;-66
2022/03/10 10:54:09;;;;;;;6.97;3.83;;;-2.30;93.50;;;;;;5013253;28;20191;-67
2022/03/10 10:56:45;;;;;;;6.87;3.80;;;-2.30;94.10;;;;;;5013743;28;20211;-67
2022/03/10 10:59:26;;;;;;;6.57;3.60;;;-2.20;93.50;;;;;;5013040;28;20282;-66
2022/03/10 11:02:05;;;;;;;5.90;4.00;;;-2.30;92.40;;;;;;5015112;28;20191;-65
2022/03/10 11:04:33;;;;;;;6.00;3.10;;;-2.30;91.90;;;;;;5012835;28;20286;-66
2022/03/10 11:07:00;;;;;;;6.33;3.43;;;-2.30;92.70;;;;;;5012912;28;20749;-66
2022/03/10 11:09:29;;;;;;;9.97;4.00;;;-2.20;92.50;;;;;;5012389;28;20207;-66
2022/03/10 11:11:56;;;;;;;5.33;3.57;;;-2.20;92.50;;;;;;5012453;28;20243;-65
2022/03/10 11:14:24;;;;;;;5.87;4.00;;;-2.20;92.60;;;;;;5012587;28;20191;-67
2022/03/10 11:16:51;;;;;;;9.47;3.50;;;-2.20;92.80;;;;;;5012513;28;20320;-67
2022/03/10 11:19:25;;;;;;;7.20;3.73;;;-2.20;93.00;;;;;;5012252;28;20207;-65
2022/03/10 11:22:23;;;;;;;5.23;3.30;;;-2.10;92.60;;;;;;5012595;28;20577;-65
2022/03/10 11:25:17;;;;;;;6.13;3.93;;;-2.10;92.60;;;;;;5012153;28;20190;-67
2022/03/10 11:27:49;;;;;;;7.23;3.70;;;-2.00;93.50;;;;;;5005722;28;20297;-66
2022/03/10 11:30:17;;;;;;;6.50;3.80;;;-1.90;93.30;;;;;;5012300;28;20561;-66
2022/03/10 11:33:00;;;;;;;6.67;3.50;;;-1.90;92.20;;;;;;5012172;28;20213;-65
2022/03/10 11:35:31;;;;;;;6.37;3.67;;;-1.80;93.00;;;;;;5011814;28;20214;-64
2022/03/10 11:37:58;;;;;;;8.60;3.80;;;-1.70;93.20;;;;;;5012148;28;20241;-66
2022/03/10 11:40:46;;;;;;;6.97;3.97;;;-1.70;91.90;;;;;;5011973;28;20230;-65
2022/03/10 11:43:20;;;;;;;6.80;3.60;;;-1.80;91.40;;;;;;5011833;28;20201;-66
2022/03/10 11:45:47;;;;;;;6.97;3.97;;;-1.80;91.50;;;;;;5011755;28;20258;-66
2022/03/10 11:48:34;;;;;;;18.20;4.07;;;-1.90;91.70;;;;;;5011636;28;20206;-65
2022/03/10 11:51:10;;;;;;;5.97;3.77;;;-1.90;92.10;;;;;;5011926;28;20214;-66
2022/03/10 11:53:56;;;;;;;8.00;3.93;;;-2.00;92.40;;;;;;5012343;28;20195;-66
2022/03/10 11:56:50;;;;;;;8.43;3.97;;;-2.00;92.20;;;;;;5011531;28;20231;-67
2022/03/10 11:59:22;;;;;;;7.43;3.90;;;-2.00;91.40;;;;;;5011685;28;20214;-67
2022/03/10 12:01:50;;;;;;;5.23;3.40;;;-2.00;92.20;;;;;;5012246;28;20630;-65
2022/03/10 12:04:18;;;;;;;8.63;3.70;;;-1.90;92.60;;;;;;5011673;28;20206;-65
2022/03/10 12:06:50;;;;;;;8.53;3.80;;;-1.90;92.20;;;;;;5011975;28;20203;-66
2022/03/10 12:09:29;;;;;;;6.27;3.77;;;-2.00;92.20;;;;;;5012089;28;20211;-66
2022/03/10 12:12:13;;;;;;;8.33;4.40;;;-2.00;92.80;;;;;;5011707;28;20249;-66
2022/03/10 12:14:41;;;;;;;8.47;4.27;;;-2.10;93.00;;;;;;5011730;28;20194;-67
2022/03/10 12:17:41;;;;;;;7.97;4.10;;;-2.10;93.50;;;;;;5011623;28;20226;-65
2022/03/10 12:20:13;;;;;;;8.03;4.17;;;-2.00;93.40;;;;;;5011975;28;20195;-67
2022/03/10 12:22:40;;;;;;;7.80;3.90;;;-2.00;92.70;;;;;;5015653;28;20565;-65
2022/03/10 12:25:20;;;;;;;8.23;3.97;;;-2.00;92.10;;;;;;5015617;28;20210;-67
2022/03/10 12:27:52;;;;;;;9.33;3.60;;;-2.00;92.80;;;;;;5015663;28;20222;-68
2022/03/10 12:30:22;;;;;;;6.23;3.90;;;-2.00;92.30;;;;;;5016021;28;20551;-67
2022/03/10 12:32:51;;;;;;;7.23;4.10;;;-2.00;92.70;;;;;;5015384;28;20214;-69
2022/03/10 12:35:21;;;;;;;7.03;4.23;;;-1.90;92.60;;;;;;5015444;28;20626;-65
2022/03/10 12:37:49;;;;;;;15.30;4.17;;;-2.00;92.40;;;;;;5015256;28;20210;-66
2022/03/10 12:40:20;;;;;;;6.13;3.57;;;-2.00;92.30;;;;;;5015490;28;20215;-65
2022/03/10 12:42:48;;;;;;;7.03;3.73;;;-2.00;92.30;;;;;;5015577;28;20241;-67
2022/03/10 12:45:20;;;;;;;5.63;3.53;;;-2.00;91.60;;;;;;5014738;28;20234;-66
2022/03/10 12:48:03;;;;;;;7.33;3.97;;;-2.00;91.70;;;;;;5015135;28;20195;-67
2022/03/10 12:50:33;;;;;;;6.30;4.30;;;-2.00;91.80;;;;;;5015373;28;20194;-67
2022/03/10 12:53:10;;;;;;;4.93;3.60;;;-2.00;91.70;;;;;;5015528;28;20233;-67
2022/03/10 12:55:37;;;;;;;11.40;3.97;;;-2.00;91.30;;;;;;5015019;28;20214;-68
2022/03/10 12:58:04;;;;;;;9.03;3.80;;;-2.10;91.50;;;;;;5014960;28;20218;-67